Terminal Aerodrome Forecast
Issued by NWS Wilmington, NC

Current Version | Previous Version | Graphics & Text | Print | Product List | Glossary Off
Versions: 1 2 3 4 5 6 7 8 9 10 11 12 13 14 15 16

000
FTUS42 KILM 271120
TAFFLO
TAF
KFLO 271120Z 2712/2812 36006KT P6SM SCT250
     FM271900 01006KT P6SM VCSH SCT050 SCT100
     FM272300 03004KT P6SM SCT120=

USA.gov is the U.S. government's official web portal to all federal, state and local government web resources and services.